• Join FlightAware (Why Join?)
  • Login
  • US Flag 
10:14PM EDT


 

Airport Tracker/Info


-or-


 

Live Flight TrackerFlight Track Log ✈ ACA831 ✈ 07-May-2013 ✈ LSGG / GVA - CYUL

Flight Track Log - Related Links

Times and Time Zones

All times are in EDT time to prevent confusion due to time zone crossing. See the ACA831 flight status page for this flight to view local times or setup timezone preferences in your user account.

Time Position Orientation Groundspeed Altitude Reporting Facility
EDT Latitude Longitude Course Direction KTS MPH feet Rate Location/Type
06:20AM 46.1990 6.0600 36° Northeast 168 193 4,100  Level FlightAware
06:22AM 46.3322 5.8369 296° West  Level FlightAware Approximate
06:23AM 46.3784 5.6911 294° West  Level FlightAware Approximate
06:23AM 46.1960 5.8830 294° West 291 335 11,000  Level FlightAware
06:23AM 46.2550 5.8340 330° Northwest 330 380 12,800 2,820 Climbing FlightAware
06:25AM 46.3650 5.7360 328° Northwest 362 417 16,900 3,060 Climbing FlightAware
06:25AM 46.4230 5.6850 329° Northwest 364 419 19,000 2,760 Climbing FlightAware
06:27AM 46.5590 5.5650 329° Northwest 397 457 23,000 2,580 Climbing FlightAware
06:28AM 46.6230 5.5080 329° Northwest 406 467 24,600 2,040 Climbing FlightAware
06:28AM 46.6940 5.4450 329° Northwest 425 489 25,900 1,920 Climbing FlightAware
06:29AM 46.7610 5.3860 329° Northwest 432 497 27,400 1,920 Climbing FlightAware
06:30AM 46.8380 5.3070 325° Northwest 443 510 28,700 1,560 Climbing FlightAware
06:30AM 46.8900 5.2360 317° Northwest 455 524 29,500 2,100 Climbing FlightAware
06:31AM 46.9580 5.1420 317° Northwest 446 513 31,500 2,280 Climbing FlightAware
06:32AM 47.0170 5.0600 317° Northwest 443 510 32,800 1,380 Climbing FlightAware
06:32AM 47.0840 4.9660 316° Northwest 446 513 33,500 780 Climbing FlightAware
06:33AM 47.1520 4.8700 316° Northwest 440 506 34,000 300 Climbing FlightAware
06:34AM 47.2050 4.7930 315° West 437 503 34,000  Level FlightAware
06:35AM 47.2670 4.7040 316° Northwest 437 503 34,000  Level FlightAware
06:35AM 47.3310 4.6110 315° West 439 505 34,000  Level FlightAware
06:36AM 47.3880 4.5290 316° Northwest 441 507 34,000 120 Level FlightAware
06:37AM 47.4460 4.4440 315° West 439 505 34,200 480 Climbing FlightAware
06:37AM 47.5030 4.3620 316° Northwest 434 499 34,700 840 Climbing FlightAware
06:38AM 47.5670 4.2680 315° West 430 495 35,400 840 Climbing FlightAware
06:39AM 47.6320 4.1740 316° Northwest 435 501 36,000 420 Climbing FlightAware
06:39AM 47.6900 4.0880 315° West 446 513 36,000  Level FlightAware
06:40AM 47.7530 3.9950 315° West 449 517 36,000  Level FlightAware
06:41AM 47.8060 3.9170 315° West 446 513 36,000  Level FlightAware
06:42AM 47.8740 3.8160 315° West 443 510 36,000  Level FlightAware
06:42AM 47.9310 3.7310 315° West 441 507 36,000  Level FlightAware
06:43AM 47.9890 3.6450 315° West 438 504 36,000  Level FlightAware
06:44AM 48.0600 3.5380 315° West 436 502 36,000  Level FlightAware
06:44AM 48.1090 3.4640 315° West 436 502 36,000  Level FlightAware
06:45AM 48.1660 3.3790 315° West 434 499 36,000  Level FlightAware
06:46AM 48.2350 3.2760 315° West 434 499 36,000  Level FlightAware
06:46AM 48.2910 3.1910 315° West 435 501 36,000  Level FlightAware
06:48AM 48.4320 2.9780 315° West 439 505 36,000  Level FlightAware
06:49AM 48.5050 2.8650 314° West 441 507 36,000 -360 Level FlightAware
06:52AM 48.6349 2.4806 297° West  Level Estimated
06:53AM 48.6872 2.3242 297° West  Level Estimated
06:53AM 48.7425 2.2434 297° West 1 1 34,500  Level FlightAware UK
06:53AM 48.7500 2.2440 297° West 439 505 36,000  Climbing FlightAware
06:53AM 48.7557 2.1538 297° West 472 543 34,500  Descending FlightAware UK
06:54AM 48.7720 2.1090 297° West 438 504 36,000  Climbing FlightAware
06:54AM 48.7757 2.0287 297° West 474 545 34,500  Descending FlightAware UK
06:54AM 48.7920 1.9880 297° West 436 502 36,000 -180 Climbing FlightAware
06:55AM 48.7930 1.9217 297° West 472 543 34,400 -2,460 Descending FlightAware UK
06:55AM 48.8012 1.8682 283° West 470 541 34,500 4,560 Climbing FlightAware UK
06:55AM 48.8100 1.8700 283° West 435 501 36,000  Climbing FlightAware
06:55AM 48.8140 1.7788 283° West 470 541 34,500  Descending FlightAware UK
06:56AM 48.8300 1.7410 283° West 433 498 36,000  Climbing FlightAware
06:56AM 48.8301 1.6728 283° West 472 543 34,500  Descending FlightAware UK
06:56AM 48.8490 1.6240 283° West 432 497 36,000  Climbing FlightAware
06:57AM 48.8548 1.5136 283° West 472 543 34,500  Descending FlightAware UK
06:57AM 48.8700 1.4890 283° West 431 496 36,000  Climbing FlightAware
06:57AM 48.8682 1.4254 283° West 470 541 34,500 -2,700 Descending FlightAware UK
06:58AM 48.8763 1.3726 283° West 470 541 34,500 3,720 Level FlightAware UK
06:58AM 48.8880 1.3710 283° West 428 493 36,000  Climbing FlightAware
06:58AM 48.8924 1.2682 283° West 470 541 34,500  Descending FlightAware UK
06:59AM 48.9070 1.2460 283° West 427 491 36,000 1,620 Climbing FlightAware
06:59AM 48.9260 1.1220 283° West 425 489 36,000 -1,620 Level FlightAware
07:00AM 48.9237 1.0586 283° West 468 539 34,500 -2,580 Descending FlightAware UK
07:00AM 48.9317 1.0064 283° West 466 536 34,500 3,900 Level FlightAware UK
07:00AM 48.9430 1.0120 283° West 424 488 36,000  Climbing FlightAware
07:00AM 48.9420 0.9372 283° West 466 536 34,500 -2,460 Descending FlightAware UK
07:01AM 48.9496 0.8851 283° West 466 536 34,500  Level FlightAware UK
07:01AM 48.9600 0.8156 283° West 464 534 34,500  Level FlightAware UK
07:01AM 48.9725 0.7284 282° West 462 532 34,500 -120 Level FlightAware UK
07:02AM 48.9950 0.5724 282° West 464 534 34,400 -120 Descending FlightAware UK
07:03AM 49.0076 0.4859 283° West 464 534 34,400  Level FlightAware UK
07:03AM 49.0175 0.4167 282° West 464 534 34,400  Level FlightAware UK
07:04AM 49.0248 0.3655 282° West 464 534 34,400 3,660 Level FlightAware UK
07:04AM 49.0380 0.3560 282° West 421 484 36,000  Climbing FlightAware
07:04AM 49.0420 0.2446 282° West 464 534 34,400  Descending FlightAware UK
07:04AM 49.0540 0.2440 282° West 421 484 36,000 3,420 Climbing FlightAware
07:05AM 49.0634 0.1771 282° West 422 486 36,000 -2,100 Level FlightAware ADS-B
07:05AM 49.0638 0.0889 282° West 464 534 34,400  Descending FlightAware UK
07:06AM 49.0890 -0.0070 282° West 421 484 36,000 60 Climbing FlightAware
07:06AM 49.0857 -0.0674 282° West 466 536 34,500  Descending FlightAware UK
07:07AM 49.1060 -0.1360 282° West 420 483 36,000 1,260 Climbing FlightAware
07:07AM 49.1220 -0.2510 282° West 419 482 36,000 -1,680 Level FlightAware
07:07AM 49.1185 -0.3105 282° West 466 536 34,500  Descending FlightAware UK
07:08AM 49.1360 -0.3600 282° West 418 481 36,000 1,380 Climbing FlightAware
07:09AM 49.1510 -0.4720 282° West 418 481 36,000 -1,440 Level FlightAware
07:09AM 49.1532 -0.5698 282° West 466 536 34,500  Descending FlightAware UK
07:09AM 49.1690 -0.6050 282° West 416 479 36,000  Climbing FlightAware
07:10AM 49.1669 -0.6735 282° West 468 539 34,500 -2,700 Descending FlightAware UK
07:10AM 49.1736 -0.7254 281° West 468 539 34,500 3,720 Level FlightAware UK
07:10AM 49.1840 -0.7240 281° West 416 479 36,000  Climbing FlightAware
07:11AM 49.1895 -0.8454 281° West 468 539 34,500  Descending FlightAware UK
07:11AM 49.2010 -0.8520 281° West 415 478 36,000  Climbing FlightAware
07:11AM 49.1985 -0.9143 281° West 468 539 34,500  Descending FlightAware UK
07:11AM 49.2150 -0.9630 281° West 413 475 36,000  Climbing FlightAware
07:12AM 49.2146 -1.0337 281° West 470 541 34,500 -2,220 Descending FlightAware UK
07:12AM 49.2245 -1.1017 283° West 468 539 34,500 3,180 Level FlightAware UK
07:12AM 49.2320 -1.0860 283° West 411 473 36,000  Climbing FlightAware
07:13AM 49.2368 -1.1864 283° West 468 539 34,500 -1,080 Descending FlightAware UK
07:14AM 49.2611 -1.3545 283° West 470 541 34,500  Level FlightAware UK
07:14AM 49.2737 -1.4388 283° West 466 536 34,500  Level FlightAware UK
07:15AM 49.3014 -1.6404 282° West 468 539 34,500  Level FlightAware UK
07:16AM 49.3157 -1.7757 279° West 468 539 34,500  Level FlightAware UK
07:16AM 49.3236 -1.8424 280° West 468 539 34,500  Level FlightAware UK
07:17AM 49.3316 -1.9099 280° West 468 539 34,500  Level FlightAware UK
07:17AM 49.3377 -1.9607 280° West 466 536 34,500 2,400 Level FlightAware UK
07:17AM 49.3470 -1.9860 280° West 402 463 36,000 1,620 Climbing FlightAware
07:18AM 49.3590 -2.0930 280° West 401 461 36,000  Level FlightAware
07:19AM 49.3740 -2.2290 280° West 400 460 36,000 -1,380 Level FlightAware
07:19AM 49.3776 -2.2958 280° West 464 534 34,500  Descending FlightAware UK
07:20AM 49.3870 -2.3430 280° West 401 461 36,000  Climbing FlightAware
07:20AM 49.3948 -2.4460 280° West 464 534 34,500  Descending FlightAware UK
07:20AM 49.4030 -2.4800 280° West 401 461 36,000  Climbing FlightAware
07:21AM 49.4040 -2.5301 280° West 464 534 34,500 -2,340 Descending FlightAware UK
07:21AM 49.4115 -2.5974 280° West 464 534 34,500 3,000 Level FlightAware UK
07:21AM 49.4150 -2.6010 280° West 402 463 36,000  Climbing FlightAware
07:21AM 49.4208 -2.6809 280° West 464 534 34,500  Descending FlightAware UK
07:22AM 49.4280 -2.7150 280° West 402 463 36,000  Climbing FlightAware
07:22AM 49.4322 -2.7819 280° West 464 534 34,500 -2,460 Descending FlightAware UK
07:22AM 49.4376 -2.8324 279° West 464 534 34,500 4,260 Level FlightAware UK
07:22AM 49.4390 -2.8280 279° West 401 461 36,000 1,860 Climbing FlightAware
07:23AM 49.4530 -2.9550 280° West 402 463 36,000 -1,200 Level FlightAware
07:24AM 49.4612 -3.0514 280° West 462 532 34,500  Descending FlightAware UK
07:24AM 49.4650 -3.0720 280° West 403 464 36,000  Climbing FlightAware
07:24AM 49.4702 -3.1354 280° West 464 534 34,500  Descending FlightAware UK
07:25AM 49.4770 -3.1930 280° West 403 464 36,000 -180 Climbing FlightAware
07:25AM 49.4846 -3.2712 280° West 464 534 34,400  Descending FlightAware UK
07:25AM 49.4880 -3.3070 280° West 403 464 36,000 120 Climbing FlightAware
07:26AM 49.4953 -3.3729 280° West 464 534 34,500  Descending FlightAware UK
07:26AM 49.4990 -3.4170 280° West 404 465 36,000  Climbing FlightAware
07:26AM 49.5058 -3.4747 280° West 464 534 34,500 -2,760 Descending FlightAware UK
07:26AM 49.5109 -3.5251 279° West 462 532 34,500 3,000 Level FlightAware UK
07:27AM 49.5130 -3.5520 279° West 403 464 36,000  Climbing FlightAware
07:27AM 49.5206 -3.6097 279° West 464 534 34,500 -2,520 Descending FlightAware UK
07:27AM 49.5281 -3.6601 283° West 464 534 34,500 4,080 Level FlightAware UK
07:27AM 49.5270 -3.6610 283° West 404 465 36,000  Climbing FlightAware
07:28AM 49.5366 -3.7274 283° West 464 534 34,500 -2,400 Descending FlightAware UK
07:28AM 49.5430 -3.7781 281° West 464 534 34,500 3,600 Level FlightAware UK
07:28AM 49.5420 -3.7860 281° West 404 465 36,000 1,860 Climbing FlightAware
07:29AM 49.5550 -3.8960 280° West 404 465 36,000 -1,560 Level FlightAware
07:29AM 49.5666 -3.9636 280° West 462 532 34,500  Descending FlightAware UK
07:29AM 49.5700 -4.0140 280° West 405 466 36,000  Climbing FlightAware
07:30AM 49.5857 -4.1163 280° West 462 532 34,500  Descending FlightAware UK
07:30AM 49.5850 -4.1440 280° West 406 467 36,000  Climbing FlightAware
07:31AM 49.6006 -4.2353 280° West 462 532 34,500  Descending FlightAware UK
07:31AM 49.6020 -4.2570 280° West 408 470 36,000  Climbing FlightAware
07:31AM 49.6188 -4.3181 280° West 462 532 34,500 -2,400 Descending FlightAware UK
07:31AM 49.6316 -4.3667 292° West 462 532 34,500 4,500 Level FlightAware UK
07:31AM 49.6280 -4.3640 292° West 408 470 36,000  Climbing FlightAware
07:32AM 49.6458 -4.4142 292° West 462 532 34,500 -2,700 Descending FlightAware UK
07:32AM 49.6592 -4.4625 293° West 462 532 34,500 3,060 Level FlightAware UK
07:32AM 49.6600 -4.4830 293° West 409 471 36,000  Climbing FlightAware
07:33AM 49.6901 -4.5746 293° West 462 532 34,500  Descending FlightAware UK
07:33AM 49.6890 -4.5890 293° West 409 471 36,000 1,620 Climbing FlightAware
07:34AM 49.7230 -4.7140 293° West 410 472 36,000 -1,260 Level FlightAware
07:34AM 49.7531 -4.8001 293° West 462 532 34,500  Descending FlightAware UK
07:34AM 49.7520 -4.8190 293° West 411 473 36,000  Climbing FlightAware
07:35AM 49.7757 -4.8809 293° West 462 532 34,500 -2,460 Descending FlightAware UK
07:35AM 49.7891 -4.9295 293° West 462 532 34,500 3,420 Level FlightAware UK
07:35AM 49.7860 -4.9440 293° West 411 473 36,000  Climbing FlightAware
07:35AM 49.8112 -5.0108 293° West 462 532 34,500  Descending FlightAware UK
07:36AM 49.8140 -5.0490 293° West 411 473 36,000  Climbing FlightAware
07:36AM 49.8421 -5.1241 293° West 462 532 34,500  Descending FlightAware UK
07:36AM 49.8440 -5.1610 293° West 412 474 36,000  Climbing FlightAware
07:37AM 49.8687 -5.2220 293° West 462 532 34,500  Descending FlightAware UK
07:37AM 49.8770 -5.2820 293° West 414 476 36,000  Climbing FlightAware
07:37AM 49.8998 -5.3366 293° West 464 534 34,500 -2,580 Descending FlightAware UK
07:38AM 49.9131 -5.3858 293° West 464 534 34,500 3,900 Level FlightAware UK
07:38AM 49.9060 -5.3900 293° West 414 476 36,000  Climbing FlightAware
07:38AM 49.9440 -5.5011 293° West 464 534 34,500  Descending FlightAware UK
07:38AM 49.9350 -5.5000 293° West 414 476 36,000  Climbing FlightAware
07:39AM 49.9572 -5.5507 293° West 462 532 34,500 -2,760 Descending FlightAware UK
07:39AM 49.9704 -5.6001 293° West 462 532 34,500 3,000 Level FlightAware UK
07:39AM 49.9670 -5.6230 293° West 415 478 36,000  Climbing FlightAware
07:40AM 49.9923 -5.6826 293° West 464 534 34,500 -2,520 Descending FlightAware UK
07:40AM 50.0054 -5.7322 292° West 464 534 34,500 4,080 Level FlightAware UK
07:40AM 49.9960 -5.7310 292° West 415 478 36,000  Climbing FlightAware
07:40AM 50.0227 -5.7984 292° West 462 532 34,500 -2,400 Descending FlightAware UK
07:41AM 50.0358 -5.8480 292° West 462 532 34,500 4,500 Level FlightAware UK
07:41AM 50.0250 -5.8420 292° West 416 479 36,000  Climbing FlightAware
07:41AM 50.0488 -5.8978 292° West 464 534 34,500 -2,700 Descending FlightAware UK
07:41AM 50.0619 -5.9469 292° West 462 532 34,500 3,060 Level FlightAware UK
07:41AM 50.0580 -5.9680 292° West 416 479 36,000  Climbing FlightAware
07:42AM 50.0839 -6.0298 292° West 462 532 34,500 -2,460 Descending FlightAware UK
07:42AM 50.0970 -6.0795 292° West 462 532 34,500 4,260 Level FlightAware UK
07:42AM 50.0870 -6.0790 292° West 417 480 36,000  Climbing FlightAware
07:42AM 50.1101 -6.1295 292° West 462 532 34,500 -2,760 Descending FlightAware UK
07:43AM 50.1233 -6.1794 292° West 462 532 34,500 3,000 Level FlightAware UK
07:43AM 50.1200 -6.2060 292° West 418 481 36,000  Climbing FlightAware
07:43AM 50.1449 -6.2629 292° West 462 532 34,500 -2,520 Descending FlightAware UK
07:43AM 50.1579 -6.3130 292° West 462 532 34,500 4,080 Level FlightAware UK
07:43AM 50.1490 -6.3180 292° West 417 480 36,000  Climbing FlightAware
07:44AM 50.1752 -6.3797 292° West 462 532 34,500 -2,400 Descending FlightAware UK
07:44AM 50.1882 -6.4297 292° West 462 532 34,500 4,500 Level FlightAware UK
07:44AM 50.1780 -6.4300 292° West 416 479 36,000  Climbing FlightAware
07:44AM 50.2011 -6.4798 292° West 462 532 34,500 -2,700 Descending FlightAware UK
07:45AM 50.2139 -6.5299 292° West 462 532 34,500 3,060 Level FlightAware UK
07:45AM 50.2090 -6.5520 292° West 416 479 36,000  Climbing FlightAware
07:45AM 50.2354 -6.6133 292° West 460 529 34,500 -2,460 Descending FlightAware UK
07:45AM 50.2483 -6.6633 292° West 460 529 34,500 4,260 Level FlightAware UK
07:45AM 50.2380 -6.6650 292° West 417 480 36,000  Climbing FlightAware
07:46AM 50.2612 -6.7135 292° West 460 529 34,500 -2,760 Descending FlightAware UK
07:46AM 50.2738 -6.7639 291° West 460 529 34,500 3,000 Level FlightAware UK
07:46AM 50.2690 -6.7880 291° West 418 481 36,000  Climbing FlightAware
07:47AM 50.2947 -6.8482 291° West 462 532 34,500 -2,520 Descending FlightAware UK
07:47AM 50.3073 -6.8987 291° West 462 532 34,500 4,080 Level FlightAware UK
07:47AM 50.2970 -6.9000 291° West 418 481 36,000  Climbing FlightAware
07:47AM 50.3243 -6.9661 291° West 462 532 34,500 -2,400 Descending FlightAware UK
07:48AM 50.3372 -7.0167 292° West 464 534 34,500 4,500 Level FlightAware UK
07:48AM 50.3260 -7.0150 292° West 419 482 36,000  Climbing FlightAware
07:48AM 50.3497 -7.0669 292° West 464 534 34,500 -2,700 Descending FlightAware UK
07:48AM 50.3623 -7.1176 291° West 464 534 34,500 3,060 Level FlightAware UK
07:48AM 50.3570 -7.1400 291° West 419 482 36,000  Climbing FlightAware
07:49AM 50.3834 -7.2024 291° West 464 534 34,500 -2,460 Descending FlightAware UK
07:49AM 50.3960 -7.2533 291° West 462 532 34,500 3,420 Level FlightAware UK
07:49AM 50.3880 -7.2660 291° West 419 482 36,000  Climbing FlightAware
07:49AM 50.4126 -7.3211 291° West 462 532 34,500 -2,700 Descending FlightAware UK
07:50AM 50.4251 -7.3720 291° West 462 532 34,500 3,720 Level FlightAware UK
07:50AM 50.4170 -7.3840 291° West 418 481 36,000  Climbing FlightAware
07:50AM 50.4417 -7.4397 291° West 462 532 34,500  Descending FlightAware UK
07:50AM 50.4400 -7.4730 291° West 418 481 36,000  Climbing FlightAware
07:50AM 50.4542 -7.4905 291° West 460 529 34,500 -4,740 Descending FlightAware UK
07:51AM 50.4667 -7.5413 291° West 462 532 34,500  Level FlightAware UK
07:51AM 50.4791 -7.5922 291° West 462 532 34,500 2,880 Level FlightAware UK
07:51AM 50.4760 -7.6200 291° West 418 481 36,000  Climbing FlightAware
07:51AM 50.4999 -7.6770 291° West 462 532 34,500 -2,580 Descending FlightAware UK
07:52AM 50.5123 -7.7279 291° West 462 532 34,500 3,900 Level FlightAware UK
07:52AM 50.5030 -7.7330 291° West 418 481 36,000  Climbing FlightAware
07:52AM 50.5287 -7.7959 291° West 462 532 34,500 -2,460 Descending FlightAware UK
07:52AM 50.5410 -7.8469 291° West 462 532 34,500 3,420 Level FlightAware UK
07:53AM 50.5350 -7.8630 291° West 419 482 36,000  Climbing FlightAware
07:53AM 50.5574 -7.9151 291° West 462 532 34,500 -2,700 Descending FlightAware UK
07:53AM 50.5695 -7.9662 291° West 460 529 34,500 3,720 Level FlightAware UK
07:53AM 50.5630 -7.9770 291° West 418 481 36,000  Climbing FlightAware
07:54AM 50.5858 -8.0344 291° West 460 529 34,500 -2,520 Descending FlightAware UK
07:54AM 50.5980 -8.0855 291° West 460 529 34,500 3,300 Level FlightAware UK
07:54AM 50.5930 -8.1000 291° West 418 481 36,000  Climbing FlightAware
07:54AM 50.6143 -8.1536 291° West 460 529 34,500 -2,760 Descending FlightAware UK
07:55AM 50.6264 -8.2041 291° West 460 529 34,500 3,600 Level FlightAware UK
07:55AM 50.6200 -8.2130 291° West 419 482 36,000  Climbing FlightAware
07:55AM 50.6425 -8.2724 291° West 460 529 34,500 -2,580 Descending FlightAware UK
07:55AM 50.6545 -8.3236 290° West 460 529 34,500 3,900 Level FlightAware UK
07:55AM 50.6460 -8.3220 290° West 419 482 36,000  Climbing FlightAware
07:56AM 50.6707 -8.3921 290° West 462 532 34,500 -2,460 Descending FlightAware UK
07:56AM 50.6828 -8.4435 290° West 462 532 34,500 3,420 Level FlightAware UK
07:56AM 50.6790 -8.4600 290° West 419 482 36,000  Climbing FlightAware
07:56AM 50.6989 -8.5122 290° West 462 532 34,500 -2,700 Descending FlightAware UK
07:57AM 50.7110 -8.5637 290° West 462 532 34,500 3,720 Level FlightAware UK
07:57AM 50.7050 -8.5700 290° West 419 482 36,000  Climbing FlightAware
07:57AM 50.7271 -8.6325 290° West 460 529 34,500 -2,520 Descending FlightAware UK
07:57AM 50.7393 -8.6840 290° West 460 529 34,500 4,080 Level FlightAware UK
07:57AM 50.7320 -8.6840 290° West 420 483 36,000  Climbing FlightAware
07:58AM 50.7552 -8.7529 290° West 460 529 34,500 -2,400 Descending FlightAware UK
07:58AM 50.7670 -8.8047 290° West 462 532 34,500 3,600 Level FlightAware UK
07:58AM 50.7600 -8.8020 290° West 421 484 36,000  Climbing FlightAware
07:58AM 50.7828 -8.8737 290° West 462 532 34,500 -2,580 Descending FlightAware UK
07:59AM 50.7948 -8.9256 290° West 460 529 34,500 3,900 Level FlightAware UK
07:59AM 50.7900 -8.9300 290° West 421 484 36,000  Climbing FlightAware
07:59AM 50.8108 -8.9947 290° West 460 529 34,500  Descending FlightAware UK
08:00AM 50.8200 -9.0600 290° West 421 484 36,000 1,140 Climbing FlightAware
08:00AM 50.8540 -9.2030 291° West 421 484 36,000  Level FlightAware
08:01AM 50.8940 -9.3800 290° West 421 484 36,000  Level FlightAware
08:02AM 50.9170 -9.4800 290° West 422 486 36,000  Level FlightAware
08:03AM 50.9490 -9.6180 290° West 422 486 36,000  Level FlightAware
08:03AM 50.9750 -9.7340 290° West 422 486 36,000 360 Level FlightAware
08:04AM 51.0100 -9.8890 290° West 424 488 36,600 720 Climbing FlightAware
08:05AM 51.0430 -10.0320 290° West 422 486 37,200 540 Climbing FlightAware
08:06AM 51.0760 -10.1840 289° West 420 483 37,500 480 Climbing FlightAware
08:07AM 51.1060 -10.3210 289° West 429 494 38,000 300 Climbing FlightAware
08:07AM 51.1320 -10.4380 290° West 432 497 38,000  Level FlightAware
08:08AM 51.1590 -10.5610 289° West 438 504 38,000  Level FlightAware
08:09AM 51.1820 -10.6700 289° West 436 502 38,000  Level FlightAware
08:09AM 51.2090 -10.7950 289° West 439 505 38,000  Level FlightAware
08:10AM 51.2380 -10.9290 289° West 437 503 38,000  Level FlightAware
08:11AM 51.2680 -11.0730 288° West 441 507 38,000  Level FlightAware
08:12AM 51.2930 -11.1900 289° West 442 509 38,000  Level FlightAware
08:12AM 51.3190 -11.3130 289° West 443 510 38,000  Level FlightAware
08:13AM 51.3470 -11.4560 287° West 445 512 38,000  Level FlightAware
08:14AM 51.3680 -11.5630 287° West 445 512 38,000  Level FlightAware
08:14AM 51.3880 -11.6700 287° West 445 512 38,000  Level FlightAware
08:15AM 51.4310 -11.8590 290° West 448 516 38,000  Level FlightAware
08:16AM 51.4580 -11.9900 288° West 448 516 38,000  Level FlightAware
08:17AM 51.4860 -12.1300 288° West 448 516 38,000  Level FlightAware
08:17AM 51.5190 -12.3040 287° West 448 516 38,000  Level FlightAware
08:19AM 51.5630 -12.5220 288° West 450 518 38,000  Level FlightAware
08:19AM 51.5830 -12.6310 286° West 447 514 38,000  Level FlightAware
08:20AM 51.6070 -12.7670 286° West 447 514 38,000  Level FlightAware
08:21AM 51.6270 -12.8760 287° West 447 514 38,000  Level FlightAware
08:21AM 51.6460 -12.9840 286° West 447 514 38,000  Level FlightAware
08:22AM 51.6650 -13.0930 286° West 447 514 38,000  Level FlightAware
08:23AM 51.6850 -13.2020 287° West 447 514 38,000  Level FlightAware
08:23AM 51.7040 -13.3110 286° West 447 514 38,000  Level FlightAware
08:24AM 51.7280 -13.4480 286° West 447 514 38,000  Level FlightAware
08:25AM 51.7480 -13.5570 287° West 447 514 38,000  Level FlightAware
08:26AM 51.7670 -13.6660 286° West 447 514 38,000  Level FlightAware
08:26AM 51.7860 -13.7750 286° West 447 514 38,000  Level FlightAware
08:27AM 51.8110 -13.9120 286° West 447 514 38,000  Level FlightAware
08:28AM 51.8300 -14.0210 286° West 447 514 38,000  Level FlightAware
08:28AM 51.8490 -14.1310 286° West 447 514 38,000  Level FlightAware
08:31AM 51.9141 -14.5309 285° West  Level Estimated
08:32AM 51.9442 -14.7188 285° West  Level Estimated
08:33AM 51.9739 -14.9068 284° West  Level Estimated
08:34AM 52.0034 -15.0952 284° West  Level Estimated
08:35AM 52.0326 -15.2838 284° West  Level Estimated
08:36AM 52.0614 -15.4726 284° West  Level Estimated
08:37AM 52.0891 -15.6556 284° West  Level Estimated
08:38AM 52.1164 -15.8387 284° West  Level Estimated
08:39AM 52.1435 -16.0221 284° West  Level Estimated
08:40AM 52.1702 -16.2057 283° West  Level Estimated
08:41AM 52.1967 -16.3896 283° West  Level Estimated
08:42AM 52.2229 -16.5736 283° West  Level Estimated
08:43AM 52.2490 -16.7586 283° West  Level Estimated
08:44AM 52.2747 -16.9438 283° West  Level Estimated
08:45AM 52.3001 -17.1292 283° West  Level Estimated
08:46AM 52.3253 -17.3149 283° West  Level Estimated
08:47AM 52.3502 -17.5007 282° West  Level Estimated
08:48AM 52.3747 -17.6868 282° West  Level Estimated
08:49AM 52.3990 -17.8731 282° West  Level Estimated
08:50AM 52.4230 -18.0595 282° West  Level Estimated
08:51AM 52.4467 -18.2462 282° West  Level Estimated
08:52AM 52.4701 -18.4330 282° West  Level Estimated
08:53AM 52.4932 -18.6201 282° West  Level Estimated
08:54AM 52.5160 -18.8074 281° West  Level Estimated
08:55AM 52.5385 -18.9948 281° West  Level Estimated
08:56AM 52.5607 -19.1824 281° West  Level Estimated
08:57AM 52.5826 -19.3703 281° West  Level Estimated
08:58AM 52.6042 -19.5583 281° West  Level Estimated
08:59AM 52.6256 -19.7465 281° West  Level Estimated
08:59AM 52.0000 -20.0000 274° West 434 499 38,000  Level ETMS Enhanced Traffic Management System
09:00AM 52.6466 -19.9349 280° West  Level Estimated
09:01AM 52.6673 -20.1234 280° West  Level Estimated
09:02AM 52.6879 -20.3134 280° West  Level Estimated
09:03AM 52.7081 -20.5036 280° West  Level Estimated
09:04AM 52.7281 -20.6939 280° West  Level Estimated
09:05AM 52.0560 -21.5658 273° West 434 499 38,000  Level FlightAware Transoceanic
09:06AM 52.0615 -21.7617 273° West 434 499 38,000  Level FlightAware Transoceanic
09:07AM 52.0668 -21.9578 272° West 434 499 38,000  Level FlightAware Transoceanic
09:08AM 52.0716 -22.1538 272° West 434 499 38,000  Level FlightAware Transoceanic
09:09AM 52.0762 -22.3499 272° West 434 499 38,000  Level FlightAware Transoceanic
09:10AM 52.0804 -22.5461 272° West 434 499 38,000  Level FlightAware Transoceanic
09:11AM 52.0844 -22.7423 272° West 434 499 38,000  Level FlightAware Transoceanic
09:12AM 52.0880 -22.9385 272° West 434 499 38,000  Level FlightAware Transoceanic
09:13AM 52.0912 -23.1347 271° West 434 499 38,000  Level FlightAware Transoceanic
09:14AM 52.0941 -23.3310 271° West 434 499 38,000  Level FlightAware Transoceanic
09:15AM 52.0967 -23.5273 271° West 434 499 38,000  Level FlightAware Transoceanic
09:16AM 52.0990 -23.7236 271° West 434 499 38,000  Level FlightAware Transoceanic
09:17AM 52.1010 -23.9199 271° West 434 499 38,000  Level FlightAware Transoceanic
09:18AM 52.1026 -24.1163 271° West 434 499 38,000  Level FlightAware Transoceanic
09:19AM 52.1039 -24.3127 271° West 434 499 38,000  Level FlightAware Transoceanic
09:20AM 52.1049 -24.5090 270° West 434 499 38,000  Level FlightAware Transoceanic
09:21AM 52.1056 -24.7054 270° West 434 499 38,000  Level FlightAware Transoceanic
09:22AM 52.1059 -24.9018 270° West 434 499 38,000  Level FlightAware Transoceanic
09:23AM 52.1059 -25.0982 270° West 434 499 38,000  Level FlightAware Transoceanic
09:24AM 52.1056 -25.2946 270° West 434 499 38,000  Level FlightAware Transoceanic
09:25AM 52.1049 -25.4910 270° West 434 499 38,000  Level FlightAware Transoceanic
09:26AM 52.1039 -25.6873 269° West 434 499 38,000  Level FlightAware Transoceanic
09:27AM 52.1026 -25.8837 269° West 434 499 38,000  Level FlightAware Transoceanic
09:28AM 52.1010 -26.0801 269° West 434 499 38,000  Level FlightAware Transoceanic
09:29AM 52.0990 -26.2764 269° West 434 499 38,000  Level FlightAware Transoceanic
09:30AM 52.0967 -26.4727 269° West 434 499 38,000  Level FlightAware Transoceanic
09:31AM 52.0941 -26.6690 269° West 434 499 38,000  Level FlightAware Transoceanic
09:32AM 52.0912 -26.8653 269° West 434 499 38,000  Level FlightAware Transoceanic
09:33AM 52.0880 -27.0615 268° West 434 499 38,000  Level FlightAware Transoceanic
09:34AM 52.0844 -27.2577 268° West 434 499 38,000  Level FlightAware Transoceanic
09:35AM 52.0804 -27.4539 268° West 434 499 38,000  Level FlightAware Transoceanic
09:36AM 52.0762 -27.6501 268° West 434 499 38,000  Level FlightAware Transoceanic
09:37AM 52.0716 -27.8462 268° West 434 499 38,000  Level FlightAware Transoceanic
09:38AM 52.0668 -28.0422 268° West 434 499 38,000  Level FlightAware Transoceanic
09:39AM 52.0615 -28.2383 267° West 434 499 38,000  Level FlightAware Transoceanic
09:40AM 52.0560 -28.4342 267° West 434 499 38,000  Level FlightAware Transoceanic
09:41AM 52.0501 -28.6302 267° West 434 499 38,000  Level FlightAware Transoceanic
09:42AM 52.0439 -28.8260 267° West 434 499 38,000  Level FlightAware Transoceanic
09:43AM 52.0374 -29.0219 267° West 434 499 38,000  Level FlightAware Transoceanic
09:44AM 52.0306 -29.2176 267° West 434 499 38,000  Level FlightAware Transoceanic
09:45AM 52.0234 -29.4133 267° West 434 499 38,000  Level FlightAware Transoceanic
09:46AM 52.0159 -29.6089 266° West 434 499 38,000  Level FlightAware Transoceanic
09:47AM 52.0081 -29.8045 266° West 434 499 38,000  Level FlightAware Transoceanic
09:48AM 52.0003 -29.9941 266° West  Level FlightAware Approximate
09:49AM 51.9920 -30.1837 266° West  Level FlightAware Approximate
09:49AM 52.0000 -30.0000 256° West 431 496 38,000  Level ETMS Enhanced Traffic Management System
09:50AM 51.9739 -30.1731 256° West  Level FlightAware Approximate
09:51AM 51.9458 -30.3574 256° West  Level FlightAware Approximate
09:52AM 51.9174 -30.5415 256° West  Level FlightAware Approximate
09:53AM 51.8887 -30.7254 256° West  Level FlightAware Approximate
09:54AM 51.8597 -30.9090 256° West  Level FlightAware Approximate
09:55AM 51.7631 -31.5064 255° West 431 496 38,000  Level FlightAware Transoceanic
09:56AM 51.7322 -31.6936 255° West 431 496 38,000  Level FlightAware Transoceanic
09:57AM 51.7009 -31.8805 255° West 431 496 38,000  Level FlightAware Transoceanic
09:58AM 51.6694 -32.0672 255° West 431 496 38,000  Level FlightAware Transoceanic
09:59AM 51.6375 -32.2536 255° West 431 496 38,000  Level FlightAware Transoceanic
10:00AM 51.6054 -32.4397 254° West 431 496 38,000  Level FlightAware Transoceanic
10:01AM 51.5730 -32.6256 254° West 431 496 38,000  Level FlightAware Transoceanic
10:02AM 51.5402 -32.8112 254° West 431 496 38,000  Level FlightAware Transoceanic
10:03AM 51.5072 -32.9965 254° West 431 496 38,000  Level FlightAware Transoceanic
10:04AM 51.4739 -33.1816 254° West 431 496 38,000  Level FlightAware Transoceanic
10:05AM 51.4403 -33.3663 254° West 431 496 38,000  Level FlightAware Transoceanic
10:06AM 51.4064 -33.5509 254° West 431 496 38,000  Level FlightAware Transoceanic
10:07AM 51.3722 -33.7351 253° West 431 496 38,000  Level FlightAware Transoceanic
10:08AM 51.3378 -33.9191 253° West 431 496 38,000  Level FlightAware Transoceanic
10:09AM 51.3030 -34.1028 253° West 431 496 38,000  Level FlightAware Transoceanic
10:10AM 51.2680 -34.2862 253° West 431 496 38,000  Level FlightAware Transoceanic
10:11AM 51.2326 -34.4693 253° West 431 496 38,000  Level FlightAware Transoceanic
10:12AM 51.1970 -34.6522 253° West 431 496 38,000  Level FlightAware Transoceanic
10:13AM 51.1611 -34.8347 253° West 431 496 38,000  Level FlightAware Transoceanic
10:14AM 51.1249 -35.0170 252° West 431 496 38,000  Level FlightAware Transoceanic
10:15AM 51.0885 -35.1990 252° West 431 496 38,000  Level FlightAware Transoceanic
10:16AM 51.0517 -35.3807 252° West 431 496 38,000  Level FlightAware Transoceanic
10:17AM 51.0147 -35.5621 252° West 431 496 38,000  Level FlightAware Transoceanic
10:18AM 50.9774 -35.7433 252° West 431 496 38,000  Level FlightAware Transoceanic
10:19AM 50.9398 -35.9241 252° West 431 496 38,000  Level FlightAware Transoceanic
10:20AM 50.9019 -36.1046 252° West 431 496 38,000  Level FlightAware Transoceanic
10:21AM 50.8638 -36.2849 251° West 431 496 38,000  Level FlightAware Transoceanic
10:22AM 50.8254 -36.4648 251° West 431 496 38,000  Level FlightAware Transoceanic
10:23AM 50.7867 -36.6445 251° West 431 496 38,000  Level FlightAware Transoceanic
10:24AM 50.7477 -36.8238 251° West 431 496 38,000  Level FlightAware Transoceanic
10:25AM 50.7084 -37.0029 251° West 431 496 38,000  Level FlightAware Transoceanic
10:26AM 50.6689 -37.1817 251° West 431 496 38,000  Level FlightAware Transoceanic
10:27AM 50.6291 -37.3601 251° West 431 496 38,000  Level FlightAware Transoceanic
10:28AM 50.5891 -37.5383 250° West 431 496 38,000  Level FlightAware Transoceanic
10:29AM 50.5487 -37.7161 250° West 431 496 38,000  Level FlightAware Transoceanic
10:30AM 50.5081 -37.8937 250° West 431 496 38,000  Level FlightAware Transoceanic
10:31AM 50.4672 -38.0709 250° West 431 496 38,000  Level FlightAware Transoceanic
10:32AM 50.4261 -38.2478 250° West 431 496 38,000  Level FlightAware Transoceanic
10:33AM 50.3847 -38.4244 250° West 431 496 38,000  Level FlightAware Transoceanic
10:34AM 50.3430 -38.6007 250° West 431 496 38,000  Level FlightAware Transoceanic
10:35AM 50.3010 -38.7767 249° West 431 496 38,000  Level FlightAware Transoceanic
10:36AM 50.2588 -38.9524 249° West 431 496 38,000  Level FlightAware Transoceanic
10:37AM 50.2163 -39.1278 249° West 431 496 38,000  Level FlightAware Transoceanic
10:38AM 50.1736 -39.3029 249° West 431 496 38,000  Level FlightAware Transoceanic
10:39AM 50.1306 -39.4776 249° West 431 496 38,000  Level FlightAware Transoceanic
10:40AM 50.0873 -39.6521 249° West 431 496 38,000  Level FlightAware Transoceanic
10:41AM 50.0438 -39.8262 249° West 431 496 38,000  Level FlightAware Transoceanic
10:42AM 50.0011 -39.9957 249° West  Level FlightAware Approximate
10:43AM 49.9580 -40.1649 248° West  Level FlightAware Approximate
10:44AM 49.9736 -40.1679 256° West  Level FlightAware Approximate
10:45AM 49.9456 -40.3444 256° West  Level FlightAware Approximate
10:45AM 50.0000 -40.0000 257° West 425 489 38,000  Level ETMS Enhanced Traffic Management System
10:46AM 49.9173 -40.5208 256° West  Level FlightAware Approximate
10:47AM 49.8887 -40.6970 256° West  Level FlightAware Approximate
10:48AM 49.8599 -40.8729 256° West  Level FlightAware Approximate
10:49AM 49.8307 -41.0487 256° West  Level FlightAware Approximate
10:50AM 49.8014 -41.2242 256° West  Level FlightAware Approximate
10:51AM 49.7473 -41.6027 256° West 425 489 38,000  Level FlightAware Transoceanic
10:52AM 49.7179 -41.7797 256° West 425 489 38,000  Level FlightAware Transoceanic
10:53AM 49.6881 -41.9565 255° West 425 489 38,000  Level FlightAware Transoceanic
10:54AM 49.6582 -42.1331 255° West 425 489 38,000  Level FlightAware Transoceanic
10:55AM 49.6279 -42.3095 255° West 425 489 38,000  Level FlightAware Transoceanic
10:56AM 49.5974 -42.4856 255° West 425 489 38,000  Level FlightAware Transoceanic
10:57AM 49.5667 -42.6616 255° West 425 489 38,000  Level FlightAware Transoceanic
10:58AM 49.5356 -42.8373 255° West 425 489 38,000  Level FlightAware Transoceanic
10:59AM 49.5043 -43.0128 255° West 425 489 38,000  Level FlightAware Transoceanic
11:00AM 49.4727 -43.1880 254° West 425 489 38,000  Level FlightAware Transoceanic
11:01AM 49.4409 -43.3631 254° West 425 489 38,000  Level FlightAware Transoceanic
11:02AM 49.4088 -43.5379 254° West 425 489 38,000  Level FlightAware Transoceanic
11:03AM 49.3764 -43.7124 254° West 425 489 38,000  Level FlightAware Transoceanic
11:04AM 49.3438 -43.8868 254° West 425 489 38,000  Level FlightAware Transoceanic
11:05AM 49.3109 -44.0609 254° West 425 489 38,000  Level FlightAware Transoceanic
11:06AM 49.2777 -44.2348 254° West 425 489 38,000  Level FlightAware Transoceanic
11:07AM 49.2443 -44.4084 254° West 425 489 38,000  Level FlightAware Transoceanic
11:08AM 49.2107 -44.5818 253° West 425 489 38,000  Level FlightAware Transoceanic
11:09AM 49.1767 -44.7550 253° West 425 489 38,000  Level FlightAware Transoceanic
11:10AM 49.1425 -44.9280 253° West 425 489 38,000  Level FlightAware Transoceanic
11:11AM 49.1081 -45.1007 253° West 425 489 38,000  Level FlightAware Transoceanic
11:12AM 49.0734 -45.2731 253° West 425 489 38,000  Level FlightAware Transoceanic
11:13AM 49.0384 -45.4453 253° West 425 489 38,000  Level FlightAware Transoceanic
11:14AM 49.0032 -45.6173 253° West 425 489 38,000  Level FlightAware Transoceanic
11:15AM 48.9677 -45.7890 252° West 425 489 38,000  Level FlightAware Transoceanic
11:16AM 48.9320 -45.9605 252° West 425 489 38,000  Level FlightAware Transoceanic
11:17AM 48.8960 -46.1317 252° West 425 489 38,000  Level FlightAware Transoceanic
11:18AM 48.8598 -46.3027 252° West 425 489 38,000  Level FlightAware Transoceanic
11:19AM 48.8233 -46.4735 252° West 425 489 38,000  Level FlightAware Transoceanic
11:20AM 48.7866 -46.6440 252° West 425 489 38,000  Level FlightAware Transoceanic
11:21AM 48.7496 -46.8142 252° West 425 489 38,000  Level FlightAware Transoceanic
11:22AM 48.7123 -46.9842 252° West 425 489 38,000  Level FlightAware Transoceanic
11:23AM 48.6748 -47.1539 251° West 425 489 38,000  Level FlightAware Transoceanic
11:24AM 48.6371 -47.3234 251° West 425 489 38,000  Level FlightAware Transoceanic
11:25AM 48.5991 -47.4926 251° West 425 489 38,000  Level FlightAware Transoceanic
11:26AM 48.5609 -47.6616 251° West 425 489 38,000  Level FlightAware Transoceanic
11:27AM 48.5224 -47.8303 251° West 425 489 38,000  Level FlightAware Transoceanic
11:28AM 48.4837 -47.9988 251° West 425 489 38,000  Level FlightAware Transoceanic
11:29AM 48.4447 -48.1670 251° West 425 489 38,000  Level FlightAware Transoceanic
11:30AM 48.4055 -48.3350 251° West 425 489 38,000  Level FlightAware Transoceanic
11:31AM 48.3660 -48.5026 250° West 425 489 38,000  Level FlightAware Transoceanic
11:32AM 48.3263 -48.6701 250° West 425 489 38,000  Level FlightAware Transoceanic
11:33AM 48.2864 -48.8372 250° West 425 489 38,000  Level FlightAware Transoceanic
11:34AM 48.2462 -49.0041 250° West 425 489 38,000  Level FlightAware Transoceanic
11:35AM 48.2057 -49.1708 250° West 425 489 38,000  Level FlightAware Transoceanic
11:36AM 48.1651 -49.3372 250° West 425 489 38,000  Level FlightAware Transoceanic
11:37AM 48.1242 -49.5033 250° West 425 489 38,000  Level FlightAware Transoceanic
11:38AM 48.0830 -49.6691 250° West 425 489 38,000  Level FlightAware Transoceanic
11:39AM 48.0416 -49.8347 249° West 425 489 38,000  Level FlightAware Transoceanic
11:40AM 47.9964 -49.9960 247° West  Level FlightAware Approximate
11:41AM 48.0000 -49.9955 270° West  Level FlightAware Approximate
11:42AM 47.9705 -50.1645 255° West  Level FlightAware Approximate
11:42AM 48.0000 -50.0000 255° West 415 478 38,000  Level ETMS Enhanced Traffic Management System
11:43AM 47.9400 -50.3332 255° West  Level FlightAware Approximate
11:43AM 47.9333 -50.2667 256° West 410 472 38,000  Level Gander Center
11:44AM 47.9093 -50.5017 255° West  Level FlightAware Approximate
11:44AM 47.9000 -50.4167 252° West 410 472 38,000  Level Gander Center
11:45AM 47.8788 -50.6670 255° West  Level FlightAware Approximate
11:45AM 47.9000 -50.5667 270° West 410 472 38,000  Level Gander Center
11:46AM 47.8481 -50.8321 255° West  Level FlightAware Approximate
11:47AM 47.8172 -50.9970 254° West  Level FlightAware Approximate
11:48AM 47.8181 -50.9924 255° West  Level FlightAware Approximate
11:49AM 47.7895 -51.1582 256° West  Level FlightAware Approximate
11:51AM 47.9080 -51.7180 270° West 410 472 39,900  Level FlightAware
11:52AM 47.9080 -51.8020 270° West 419 482 40,000 60 Climbing FlightAware
11:53AM 47.9070 -51.9600 270° West 416 479 40,000  Level FlightAware
11:53AM 47.9060 -52.0740 269° West 408 470 40,000  Level FlightAware
11:54AM 47.9050 -52.1770 269° West 403 464 40,000  Level FlightAware
11:55AM 47.9040 -52.3080 269° West 399 459 40,000  Level FlightAware
11:55AM 47.9030 -52.4210 269° West 401 461 40,000  Level FlightAware
11:56AM 47.9020 -52.5300 269° West 405 466 40,000  Level FlightAware
11:57AM 47.9000 -52.6540 269° West 410 472 40,000  Level FlightAware
11:57AM 47.8990 -52.7680 269° West 414 476 40,000  Level FlightAware
11:58AM 47.8980 -52.8970 269° West 413 475 40,000  Level FlightAware
11:59AM 47.8960 -53.0110 269° West 410 472 40,000  Level FlightAware
12:00PM 47.8950 -53.1230 269° West 407 468 40,000  Level FlightAware
12:00PM 47.8930 -53.2460 269° West 407 468 40,000  Level FlightAware
12:01PM 47.8910 -53.3590 269° West 407 468 40,000  Level FlightAware
12:02PM 47.8900 -53.4720 269° West 407 468 40,000  Level FlightAware
12:02PM 47.8870 -53.5960 268° West 409 471 40,000  Level FlightAware
12:03PM 47.8850 -53.7260 269° West 416 479 40,000  Level FlightAware
12:04PM 47.8830 -53.8400 269° West 419 482 40,000  Level FlightAware
12:04PM 47.8810 -53.9560 269° West 417 480 40,000  Level FlightAware
12:05PM 47.8780 -54.0800 268° West 412 474 40,000  Level FlightAware
12:06PM 47.8760 -54.1910 269° West 408 470 40,000  Level FlightAware
12:07PM 47.8730 -54.3160 268° West 408 470 40,000  Level FlightAware
12:07PM 47.8710 -54.4290 269° West 410 472 40,000  Level FlightAware
12:08PM 47.8680 -54.5450 268° West 410 472 40,000  Level FlightAware
12:09PM 47.8650 -54.6710 268° West 416 479 40,000  Level FlightAware
12:09PM 47.8620 -54.7840 268° West 419 482 40,000  Level FlightAware
12:10PM 47.8600 -54.9010 269° West 422 486 40,000  Level FlightAware
12:11PM 47.8570 -55.0150 268° West 422 486 40,000  Level FlightAware
12:11PM 47.8530 -55.1500 268° West 424 488 40,000  Level FlightAware
12:12PM 47.8500 -55.2780 268° West 423 487 40,000  Level FlightAware
12:13PM 47.8460 -55.3930 267° West 423 487 40,000  Level FlightAware
12:14PM 47.8430 -55.5270 268° West 421 484 40,000  Level FlightAware
12:14PM 47.8390 -55.6430 267° West 420 483 40,000  Level FlightAware
12:15PM 47.8360 -55.7570 268° West 420 483 40,000  Level FlightAware
12:16PM 47.8320 -55.8830 267° West 419 482 40,000  Level FlightAware
12:16PM 47.8280 -55.9940 267° West 419 482 40,000  Level FlightAware
12:17PM 47.8250 -56.0940 267° West 418 481 40,000  Level FlightAware
12:18PM 47.8200 -56.2430 267° West 417 480 40,000  Level FlightAware
12:18PM 47.8160 -56.3560 267° West 422 486 40,000  Level FlightAware
12:19PM 47.8110 -56.4890 267° West 423 487 40,000  Level FlightAware
12:20PM 47.8070 -56.6040 267° West 423 487 40,000  Level FlightAware
12:21PM 47.8030 -56.7230 267° West 423 487 40,000  Level FlightAware
12:21PM 47.7980 -56.8420 266° West 424 488 40,000  Level FlightAware
12:22PM 47.7930 -56.9410 266° West 424 488 40,000  Level FlightAware
12:23PM 47.7880 -57.0400 266° West 424 488 40,000  Level FlightAware
12:23PM 47.7840 -57.1980 268° West 427 491 40,000  Level FlightAware
12:24PM 47.7780 -57.3170 266° West 427 491 40,000  Level FlightAware
12:25PM 47.7730 -57.4500 267° West 425 489 40,000  Level FlightAware
12:25PM 47.7680 -57.5570 266° West 425 489 40,000  Level FlightAware
12:26PM 47.7620 -57.6710 266° West 425 489 40,000  Level FlightAware
12:27PM 47.7580 -57.7710 267° West 425 489 40,000  Level FlightAware
12:29PM 47.7400 -58.1180 266° West 40,000  Level FlightAware
12:29PM 47.7340 -58.2280 265° West 426 490 40,000  Level FlightAware
12:30PM 47.7280 -58.3170 264° West 426 490 40,000  Level FlightAware
12:31PM 47.7200 -58.4850 266° West 425 489 40,000  Level FlightAware
12:32PM 47.7090 -58.6780 265° West 427 491 40,000  Level FlightAware
12:32PM 47.7020 -58.8000 265° West 427 491 40,000  Level FlightAware
12:33PM 47.6950 -58.9270 265° West 433 498 40,000  Level FlightAware
12:34PM 47.6880 -59.0280 264° West 434 499 40,000  Level FlightAware
12:35PM 47.6770 -59.2030 265° West 430 495 40,000  Level FlightAware
12:35PM 47.6690 -59.3030 263° West 430 495 40,000  Level FlightAware
12:36PM 47.6610 -59.4520 265° West 426 490 40,000  Level FlightAware
12:37PM 47.6500 -59.6100 264° West 428 493 40,000  Level FlightAware
12:38PM 47.6430 -59.7090 264° West 428 493 40,000  Level FlightAware
12:38PM 47.6360 -59.8090 264° West 428 493 40,000  Level FlightAware
12:39PM 47.6290 -59.9080 264° West 428 493 40,000  Level FlightAware
12:40PM 47.6160 -60.0990 264° West 439 505 40,000  Level FlightAware
12:41PM 47.6050 -60.2320 263° West 439 505 40,000  Level FlightAware
12:41PM 47.5970 -60.3580 265° West 433 498 40,000  Level FlightAware
12:42PM 47.5870 -60.4780 263° West 433 498 40,000  Level FlightAware
12:43PM 47.5790 -60.5780 263° West 433 498 40,000  Level FlightAware
12:43PM 47.5700 -60.6790 263° West 433 498 40,000  Level FlightAware
12:44PM 47.5620 -60.7790 263° West 433 498 40,000  Level FlightAware
12:45PM 47.5540 -60.8790 263° West 433 498 40,000  Level FlightAware
12:45PM 47.5380 -61.0960 264° West 431 496 40,000  Level FlightAware
12:46PM 47.5270 -61.2240 263° West 431 496 40,000  Level FlightAware
12:47PM 47.5170 -61.3420 263° West 431 496 40,000  Level FlightAware
12:48PM 47.5060 -61.4760 263° West 429 494 40,000  Level FlightAware
12:48PM 47.4950 -61.5900 262° West 427 491 40,000  Level FlightAware
12:49PM 47.4850 -61.7070 263° West 425 489 40,000  Level FlightAware
12:50PM 47.4740 -61.8310 263° West 423 487 40,000  Level FlightAware
12:51PM 47.4570 -62.0100 262° West 422 486 40,000  Level FlightAware
12:51PM 47.4480 -62.1070 262° West 422 486 40,000  Level FlightAware
12:52PM 47.4360 -62.2290 262° West 422 486 40,000  Level FlightAware
12:53PM 47.4270 -62.3260 262° West 422 486 40,000  Level FlightAware
12:54PM 47.4180 -62.4230 262° West 422 486 40,000  Level FlightAware
12:54PM 47.4060 -62.5450 262° West 422 486 40,000  Level FlightAware
12:55PM 47.3970 -62.6420 262° West 422 486 40,000  Level FlightAware
12:56PM 47.3880 -62.7390 262° West 422 486 40,000  Level FlightAware
12:56PM 47.3790 -62.8360 262° West 422 486 40,000  Level FlightAware
12:57PM 47.3690 -62.9330 261° West 422 486 40,000  Level FlightAware
12:58PM 47.3600 -63.0300 262° West 422 486 40,000  Level FlightAware
12:59PM 47.3490 -63.1510 262° West 422 486 40,000  Level FlightAware
12:59PM 47.3390 -63.2480 261° West 422 486 40,000  Level FlightAware
01:00PM 47.3300 -63.3450 262° West 422 486 40,000  Level FlightAware
01:01PM 47.2667 -63.7167 262° West 420 483 40,000  Level Gander Center
01:01PM 47.2667 -63.7500 270° West 420 483 40,000  Level Moncton Center
01:02PM 47.2500 -63.9333 262° West 420 483 40,000  Level Moncton Center
01:03PM 47.2333 -64.1000 262° West 420 483 40,000  Level Moncton Center
01:04PM 47.2167 -64.2667 262° West 420 483 40,000  Level Moncton Center
01:05PM 47.1833 -64.4500 255° West 420 483 40,000  Level Moncton Center
01:06PM 47.1667 -64.6167 262° West 420 483 40,000  Level Moncton Center
01:07PM 47.1500 -64.7833 262° West 420 483 40,000  Level Moncton Center
01:08PM 47.1333 -64.9333 261° West 420 483 40,000  Level Moncton Center
01:09PM 47.1167 -65.0833 261° West 420 483 40,000  Level Gander Center
01:09PM 47.1167 -65.1333 270° West 420 483 40,000  Level Moncton Center
01:10PM 47.1000 -65.2833 261° West 420 483 40,000  Level Moncton Center
01:11PM 47.0833 -65.4500 262° West 410 472 40,000  Level Moncton Center
01:12PM 47.0333 -65.6333 248° West 420 483 40,000  Level Moncton Center
01:13PM 47.0167 -65.8000 262° West 410 472 40,000  Level Moncton Center
01:14PM 47.0000 -65.9667 262° West 420 483 40,000  Level Moncton Center
01:15PM 46.9833 -66.1167 261° West 420 483 40,000  Level Moncton Center
01:16PM 46.9667 -66.2833 262° West 420 483 40,000  Level Moncton Center
01:17PM 46.9500 -66.4500 262° West 420 483 40,000  Level Moncton Center
01:18PM 46.9167 -66.6333 255° West 420 483 40,000  Level Moncton Center
01:19PM 46.8833 -66.8000 254° West 420 483 40,000  Level Moncton Center
01:25PM 46.8210 -67.8040 254° West 418 481 40,000  Level FlightAware
01:30PM 46.7350 -68.5720 261° West 421 484 40,000  Level FlightAware
01:32PM 46.6630 -68.9040 253° West 421 484 40,000  Level FlightAware
01:32PM 46.6410 -69.0040 252° West 422 486 40,000  Level FlightAware
01:33PM 46.6110 -69.1440 253° West 422 486 40,000  Level FlightAware
01:34PM 46.5880 -69.2440 252° West 420 483 40,000  Level FlightAware
01:34PM 46.5680 -69.3330 252° West 420 483 40,000  Level FlightAware
01:35PM 46.5440 -69.4370 251° West 420 483 40,000  Level FlightAware
01:36PM 46.5150 -69.5670 252° West 421 484 40,000  Level FlightAware
01:37PM 46.4860 -69.6960 252° West 423 487 40,000  Level FlightAware
01:37PM 46.4620 -69.8010 252° West 422 486 40,000  Level FlightAware
01:38PM 46.4360 -69.9140 252° West 424 488 40,000  Level FlightAware
01:39PM 46.4080 -70.0350 251° West 423 487 40,000  Level FlightAware
01:39PM 46.3840 -70.1420 252° West 423 487 40,000  Level FlightAware
01:40PM 46.3600 -70.2460 252° West 425 489 40,000  Level FlightAware
01:41PM 46.3380 -70.3470 253° West 424 488 40,000  Level FlightAware
01:42PM 46.3080 -70.4790 252° West 426 490 40,000  Level FlightAware
01:42PM 46.2820 -70.5880 251° West 426 490 40,000  Level FlightAware
01:43PM 46.2550 -70.7030 251° West 425 489 40,000  Level FlightAware
01:44PM 46.2300 -70.8100 251° West 427 491 40,000  Level FlightAware
01:44PM 46.2000 -70.9340 251° West 426 490 40,000 -240 Level FlightAware
01:45PM 46.1760 -71.0360 251° West 424 488 39,700 -1,020 Descending FlightAware
01:46PM 46.1450 -71.1640 251° West 432 497 38,600 -1,440 Descending FlightAware
01:46PM 46.1200 -71.2710 251° West 435 501 37,700 -1,320 Descending FlightAware
01:47PM 46.0920 -71.3860 251° West 437 503 36,800 -1,200 Descending FlightAware
01:48PM 46.0650 -71.4970 251° West 439 505 36,000 -2,220 Descending FlightAware
01:49PM 46.0370 -71.6110 251° West 442 509 33,900 -3,300 Descending FlightAware
01:49PM 46.0040 -71.7460 251° West 441 507 31,400 -3,060 Descending FlightAware
01:50PM 45.9770 -71.8560 251° West 431 496 29,600 -2,640 Descending FlightAware
01:51PM 45.9510 -71.9610 250° West 421 484 27,900 -2,280 Descending FlightAware
01:51PM 45.9220 -72.0770 250° West 399 459 26,400 -1,800 Descending FlightAware
01:52PM 45.8980 -72.1720 250° West 376 433 25,400 -2,580 Descending FlightAware
01:53PM 45.8740 -72.2670 250° West 391 450 23,000 -3,180 Descending FlightAware
01:53PM 45.8460 -72.3770 250° West 386 444 20,900 -2,520 Descending FlightAware
01:54PM 45.8220 -72.4700 250° West 373 429 19,500 -2,280 Descending FlightAware
01:55PM 45.7960 -72.5730 250° West 362 417 17,700 -2,400 Descending FlightAware
01:56PM 45.7730 -72.6620 250° West 355 409 16,100 -2,700 Descending FlightAware
01:56PM 45.7500 -72.7600 251° West 359 413 13,900 -2,880 Descending FlightAware
01:57PM 45.7380 -72.8550 260° West 352 405 12,100 -2,580 Descending FlightAware
01:58PM 45.7300 -72.9480 263° West 345 397 10,500 -1,560 Descending FlightAware
01:58PM 45.7210 -73.0430 262° West 306 352 9,900 -600 Descending FlightAware
01:59PM 45.7140 -73.0920 258° West 285 328 9,800 -900 Descending FlightAware
01:59PM 45.7050 -73.1470 257° West 278 320 9,100 -1,380 Descending FlightAware
02:00PM 45.7010 -73.1710 257° West 277 319 8,800 -1,500 Descending FlightAware
02:00PM 45.6940 -73.2180 258° West 275 316 8,100 -1,560 Descending FlightAware
02:00PM 45.6860 -73.2700 258° West 273 314 7,400 -1,440 Descending FlightAware
02:01PM 45.6780 -73.3230 258° West 271 312 6,700 -1,440 Descending FlightAware
02:01PM 45.6720 -73.3650 258° West 266 306 6,100 -1,560 Descending FlightAware
02:02PM 45.6640 -73.4150 257° West 262 302 5,300 -1,860 Descending FlightAware
02:02PM 45.6570 -73.4590 257° West 258 297 4,400 -1,980 Descending FlightAware
02:03PM 45.6530 -73.4820 256° West 251 289 4,000 -840 Descending FlightAware
02:03PM 45.6430 -73.5280 253° West 231 266 3,800 -600 Descending FlightAware
02:03PM 45.6260 -73.5560 229° Southwest 217 250 3,500 -900 Descending FlightAware
02:04PM 45.6050 -73.5850 224° Southwest 205 236 3,000 -1,020 Descending FlightAware
02:04PM 45.5850 -73.6110 222° Southwest 173 199 2,500 -1,020 Descending FlightAware
02:05PM 45.5710 -73.6290 222° Southwest 163 188 2,100 -900 Descending FlightAware
02:05PM 45.5550 -73.6510 224° Southwest 157 181 1,700 -900 Descending FlightAware
02:06PM 45.5410 -73.6700 224° Southwest 151 174 1,300 -780 Descending FlightAware
02:06PM 45.5270 -73.6880 222° Southwest 137 158 1,000 -660 Descending FlightAware
02:07PM 45.5170 -73.7020 224° Southwest 128 147 700 -720 Descending FlightAware